SBVT/VIX METAR and TAF weather

Enter ICAO airport designator
Station Type Date Time Source
SBVT METAR 2022/01/25 04:00 UTC NOAA

SBVT 250400Z 35003KT 9999 FEW025 23/22 Q1014


Station Type Date Time Source
SBVT Decoded METAR 2022/01/25 04:00 UTC NOAA

Vitoria Aeroporto , Brazil (SBVT) 20-16S 040-17W 4M
Jan 24, 2022 - 11:00 PM EST / 2022.01.25 0400 UTC
Wind: from the N (350 degrees) at 3 MPH (3 KT):0
Visibility: greater than 7 mile(s):0
Sky conditions: mostly clear
Temperature: 73 F (23 C)
Dew Point: 71 F (22 C)
Relative Humidity: 94%
Pressure (altimeter): 29.94 in. Hg (1014 hPa)
ob: SBVT 250400Z 35003KT 9999 FEW025 23/22 Q1014
cycle: 4

Station Type Date Time Source
SBVT TAF 2022/01/25 06:12 UTC NOAA

TAF SBVT 260310Z 2506/2606 32003KT 9999 FEW030 TN22/2509Z TX31/2517Z
BECMG 2511/2513 13013KT BKN030
TEMPO 2515/2520 08018KT
BECMG 2520/2522 05005KT FEW030
RMK PGX

Example: see airport list